Meteo Giornale » Osservazioni meteo Olanda » Vlieland

ore: 12:55 - Osservazioni Meteo Vlieland
Lat. 53° 15' N Lon. 4° 55' E Alt. 11 metri s.l.m.

molto_nuvoloso Europe/Amsterdam

5 °C

Molto Nuvoloso

Temp. 24 Ore

3 °C

8 °C

Nord

44.4 Km/h

Dew point -0 °C

Umidità 70 %

Visibilità  10 Km

Il sole sorge alle ore 08:39

Il sole tramonta alle ore 17:03

Data e Ora Cielo e Fenomeni T °C DP °C Um. % Pres. hPa Vis. km Vento km/h
Oggi h: 12:55 molto_nuvoloso Molto Nuvoloso 5 -0 70 1028 10 N 44.4
Oggi h: 12:25 poco_nuvoloso Poco Nuvoloso 5 0 70 1028 10 N/NO 46.3
Oggi h: 11:55 foschia Foschia 5 -1 65 1028 9 N/NO 53.7
Oggi h: 11:38 poco_nuvoloso Poco Nuvoloso 5 0 70 1028 10 N/NO 53.7
Oggi h: 11:25 foschia Foschia 4 1 80 1028 9 N 42.6
Oggi h: 11:18 coperto_pioggia Pioggia Debole 4 1 80 1028 9 N 40.7
Oggi h: 11:12 foschia Foschia 4 0 75 1028 9 N 46.3
Oggi h: 11:05 foschia Foschia 5 1 75 1028 9 N/NO 55.5
Oggi h: 10:55 molto_nuvoloso Molto Nuvoloso 4 -1 69 1027 10 N/NO 51.8
Oggi h: 10:29 foschia Foschia 5 0 70 1027 9 N/NO 48.1
Oggi h: 10:25 foschia Foschia 5 1 75 1027 8 N/NO 48.1
Oggi h: 10:21 foschia Foschia 5 1 75 1027 8 NO 51.8
Oggi h: 10:13 foschia Foschia 5 1 75 1027 8 N/NO 53.7
Oggi h: 09:55 foschia Foschia 4 -0 75 1027 8 N/NO 50
Oggi h: 09:25 foschia Foschia 4 -0 75 1026 9 N/NO 57.3
Oggi h: 08:55 sereno Sereno 5 -3 56 1026 10 N/NO 55.5
Oggi h: 08:35 foschia Foschia 5 -2 60 1026 9 N/NO 51.8
Oggi h: 08:25 foschia Foschia 4 -0 75 1026 8 N 40.7
Oggi h: 08:20 foschia Foschia 4 0 75 1026 8 N 40.7
Oggi h: 08:16 foschia Foschia 4 0 75 1026 7 N 40.7
Oggi h: 08:09 molto_nuvoloso Molto Nuvoloso 5 -0 70 1026 10 N 40.7
Oggi h: 07:56 foschia Foschia 4 -0 75 1026 8 N/NO 50
Oggi h: 07:55 molto_nuvoloso Molto Nuvoloso 3 -1 74 1026 7 N/NO 55.5
Oggi h: 07:25 poco_nuvoloso Poco Nuvoloso 5 -2 60 1025 10 N/NO 57.3
Oggi h: 06:55 coperto Coperto 5 -1 65 1025 10 N/NO 51.8
Oggi h: 06:25 molto_nuvoloso Molto Nuvoloso 5 -1 65 1025 10 N/NO 53.7
Oggi h: 05:55 molto_nuvoloso Molto Nuvoloso 5 -3 56 1024 10 N/NO 59.2
Oggi h: 05:25 nuvoloso Nuvoloso 5 -2 60 1024 10 N/NO 57.3
Oggi h: 04:55 coperto Coperto 5 -2 60 1024 10 N/NO 55.5
Oggi h: 04:25 molto_nuvoloso Molto Nuvoloso 6 -0 65 1023 10 N/NO 59.2
Oggi h: 03:55 foschia Foschia 6 1 70 1023 9 N 55.5
Oggi h: 03:25 molto_nuvoloso Molto Nuvoloso 5 2 80 1023 10 N 46.3
Oggi h: 03:10 foschia Foschia 5 2 80 1023 9 N/NO 53.7
Oggi h: 03:06 foschia Foschia 5 2 80 1023 9 N/NO 50
Oggi h: 03:00 foschia Foschia 5 2 80 1022 9 N 48.1
Oggi h: 02:55 foschia Foschia 5 2 80 1022 8 N/NO 53.7
Oggi h: 02:47 coperto_pioggia Pioggia Debole 5 2 80 1022 7 N/NO 55.5
Oggi h: 02:41 poco_nuvoloso Poco Nuvoloso 5 2 80 1022 10 N/NO 55.5
Oggi h: 02:33 molto_nuvoloso Molto Nuvoloso 5 3 86 1022 10 N/NO 51.8
Oggi h: 02:29 nuvoloso Nuvoloso 5 3 86 1022 10 N/NO 51.8
Oggi h: 02:25 coperto_pioggia Pioggia Debole 5 3 86 1022 6 N/NO 55.5
Oggi h: 02:20 coperto_pioggia Pioggia Debole 5 3 86 1022 3 NO 55.5
Oggi h: 02:16 coperto Coperto 6 3 81 1022 6 NO 50
Oggi h: 02:05 nuvoloso Nuvoloso 6 3 81 1022 10 NO 48.1
Oggi h: 01:55 molto_nuvoloso Molto Nuvoloso 6 3 81 1022 10 NO 46.3
Oggi h: 01:47 nuvoloso Nuvoloso 5 3 86 1022 10 N/NO 46.3
Oggi h: 01:41 coperto_pioggia Pioggia Debole 5 3 86 1022 6 N/NO 50
Oggi h: 01:38 coperto_pioggia Pioviggine 5 3 86 1022 4 N/NO 57.3
Oggi h: 01:35 coperto_pioggia Pioviggine 5 2 80 1022 6 N/NO 57.3
Oggi h: 01:27 nuvoloso Nuvoloso 6 2 75 1022 10 NO 51.8
Oggi h: 01:25 nuvoloso Nuvoloso 7 2 70 1022 10 NO 50
Oggi h: 01:17 molto_nuvoloso Molto Nuvoloso 7 2 70 1022 10 NO 53.7
Oggi h: 00:55 molto_nuvoloso Molto Nuvoloso 7 3 75 1021 10 NO 51.8
Oggi h: 00:41 nuvoloso Nuvoloso 6 3 81 1021 10 NO 50
Oggi h: 00:32 molto_nuvoloso Molto Nuvoloso 6 3 81 1021 10 NO 48.1
Oggi h: 00:28 nuvoloso Nuvoloso 6 3 81 1021 10 NO 48.1
Oggi h: 00:25 poco_nuvoloso Poco Nuvoloso 6 2 75 1021 10 NO 50
Oggi h: 00:06 poco_nuvoloso Poco Nuvoloso 6 2 75 1021 10 NO 50
Ieri h: 23:55 molto_nuvoloso Molto Nuvoloso 7 3 75 1021 10 NO 50
Ieri h: 23:43 molto_nuvoloso Molto Nuvoloso 7 3 75 1021 10 NO 50
Ieri h: 23:39 foschia Foschia 7 3 75 1021 9 NO 48.1
Ieri h: 23:38 foschia Foschia 7 3 75 1021 9 NO 50
Ieri h: 23:25 coperto_pioggia Pioggia Debole 6 3 81 1021 9 O/NO 46.3
Ieri h: 23:18 foschia Foschia 6 4 86 1021 9 NO 42.6
Ieri h: 23:09 foschia Foschia 6 3 81 1021 9 NO 42.6
Ieri h: 23:03 coperto_pioggia Pioggia Debole 5 3 86 1021 8 NO 44.4
Ieri h: 22:59 foschia Foschia 5 2 80 1021 2 NO 44.4
Ieri h: 22:55 molto_nuvoloso Molto Nuvoloso 7 3 75 1021 10 NO 44.4
Ieri h: 22:38 sereno Sereno 6 3 81 1021 10 NO 44.4
Ieri h: 22:25 molto_nuvoloso Molto Nuvoloso 6 3 81 1021 10 NO 40.7
Ieri h: 22:16 molto_nuvoloso Molto Nuvoloso 6 3 81 1021 10 NO 46.3
Ieri h: 22:05 nuvoloso Nuvoloso 6 4 86 1021 6 NO 37
Ieri h: 21:55 nuvoloso Nuvoloso 5 3 86 1021 10 NO 38.8
Ieri h: 21:49 coperto_pioggia Pioggia Debole 5 3 86 1021 4 NO 44.4
Ieri h: 21:43 molto_nuvoloso Precipitazioni 5 3 86 1021 7 NO 44.4
Ieri h: 21:29 nuvoloso Nuvoloso 7 3 75 1021 10 NO 46.3
Ieri h: 21:25 foschia Foschia 7 3 75 1021 9 NO 44.4
Ieri h: 21:15 foschia Foschia 7 3 75 1021 9 NO 40.7
Ieri h: 20:59 foschia Foschia 7 4 81 1021 8 NO 40.7
Ieri h: 20:55 foschia Foschia 7 3 75 1021 9 NO 42.6
Ieri h: 20:45 foschia Foschia 7 3 75 1021 9 NO 38.8
Ieri h: 20:38 foschia Foschia 7 3 75 1020 9 NO 40.7
Ieri h: 20:25 foschia Foschia 7 3 75 1020 9 NO 40.7
Ieri h: 20:18 foschia Foschia 7 3 75 1020 9 N/NO 40.7
Ieri h: 20:14 foschia Foschia 7 3 75 1020 9 N/NO 40.7
Ieri h: 20:08 foschia Foschia 7 3 75 1020 9 N/NO 40.7
Ieri h: 19:55 molto_nuvoloso Molto Nuvoloso 6 3 81 1020 10 N/NO 33.3
Ieri h: 19:44 nuvoloso Nuvoloso 6 2 75 1020 10 N/NO 40.7
Ieri h: 19:38 foschia Foschia 6 2 75 1020 8 NO 46.3
Ieri h: 19:29 foschia Foschia 7 3 75 1019 8 NO 44.4
Ieri h: 19:25 foschia Foschia 7 4 81 1019 8 NO 44.4
Ieri h: 19:17 foschia Foschia 7 3 75 1019 8 NO 42.6
Ieri h: 18:55 foschia Foschia 7 3 75 1019 8 NO 44.4
Ieri h: 18:42 foschia Foschia 7 3 75 1019 8 NO 44.4
Ieri h: 18:36 foschia Foschia 7 3 75 1019 8 NO 44.4
Ieri h: 18:34 foschia Foschia 7 3 75 1019 8 NO 44.4
Ieri h: 18:29 foschia Foschia 7 3 75 1019 8 NO 44.4
Ieri h: 18:25 foschia Foschia 7 3 75 1019 8 NO 40.7
Ieri h: 18:17 foschia Foschia 7 3 75 1019 8 NO 40.7
Ieri h: 18:16 foschia Foschia 7 3 75 1019 7 NO 40.7
Ieri h: 18:09 foschia Foschia 7 3 75 1019 8 NO 40.7
Ieri h: 18:07 foschia Foschia 7 4 81 1019 7 NO 40.7
Ieri h: 18:02 foschia Foschia 7 4 81 1018 8 NO 42.6
Ieri h: 17:55 foschia Foschia 7 4 81 1018 7 NO 44.4
Ieri h: 17:25 foschia Foschia 7 5 87 1018 6 NO 38.8
Ieri h: 17:15 foschia Foschia 7 5 87 1018 7 NO 37
Ieri h: 17:10 foschia Foschia 7 5 87 1018 7 NO 38.8
Ieri h: 17:02 coperto_pioggia Pioggia Debole 6 5 93 1018 8 NO 42.6
Ieri h: 16:55 coperto_pioggia Pioggia Debole 6 5 93 1018 5 NO 48.1
Ieri h: 16:43 coperto_pioggia Pioggia 6 5 93 1018 3 NO 42.6
Ieri h: 16:25 foschia Foschia 7 6 93 1017 6 NO 42.6
Ieri h: 16:16 foschia Foschia 7 6 93 1017 6 NO 44.4
Ieri h: 16:12 foschia Foschia 7 6 93 1017 8 NO 44.4
Ieri h: 15:59 molto_nuvoloso Molto Nuvoloso 8 5 81 1017 10 NO 48.1
Ieri h: 15:55 molto_nuvoloso Molto Nuvoloso 8 6 87 1017 10 NO 48.1
Ieri h: 15:25 foschia Foschia 8 6 87 1017 8 O 40.7
Ieri h: 14:55 foschia Foschia 7 6 93 1017 7 O 42.6
Ieri h: 14:44 foschia Foschia 7 6 93 1017 7 O 42.6
Ieri h: 14:31 foschia Foschia 7 6 93 1017 5 O 44.4
Ieri h: 14:25 coperto_pioggia Pioviggine 7 6 93 1017 3 O 42.6
Ieri h: 14:20 coperto_pioggia Pioviggine 7 6 93 1017 3 O 42.6
Ieri h: 14:14 coperto_pioggia Pioviggine Leggera 7 6 93 1017 5 O 42.6
Ieri h: 14:06 coperto_pioggia Pioggia Debole 7 6 93 1017 5 O 38.8
Ieri h: 13:55 coperto_pioggia Pioviggine 7 6 93 1017 4 O/SO 38.8
Ieri h: 13:50 coperto_pioggia Pioviggine 7 6 93 1018 3 O/SO 38.8
Ieri h: 13:39 coperto_pioggia Pioggia Debole 7 6 93 1018 4 O/SO 44.4
Ieri h: 13:25 foschia Foschia 7 5 87 1018 7 O/SO 44.4
Ieri h: 13:04 molto_nuvoloso Molto Nuvoloso 7 5 87 1018 10 O/SO 42.6
Ieri h: 13:03 coperto Coperto 7 5 87 1018 10 O/SO 42.6
Ieri h: 12:57 coperto Coperto 7 5 87 1018 10 O/SO 42.6
Ieri h: 12:55 molto_nuvoloso Molto Nuvoloso 7 5 87 1018 10 O/SO 42.6
Previsioni Meteo per località vicine a Vlieland